createdAt,value
2016-10-10T00:00:27.909Z,99.99
2016-10-10T00:01:27.918Z,99.99
2016-10-10T00:02:27.890Z,99.99
2016-10-10T00:03:27.933Z,99.99
2016-10-10T00:04:27.964Z,99.99
2016-10-10T00:05:27.966Z,99.99
2016-10-10T00:06:27.916Z,99.99
2016-10-10T00:07:27.880Z,99.99
2016-10-10T00:08:27.930Z,99.99
2016-10-10T00:09:27.884Z,99.99
2016-10-10T00:10:28.041Z,99.99
2016-10-10T00:11:28.739Z,99.99
2016-10-10T00:12:29.825Z,99.99
2016-10-10T00:13:29.164Z,99.99
2016-10-10T00:14:27.965Z,99.99
2016-10-10T00:15:27.924Z,99.99
2016-10-10T00:16:27.905Z,99.99
2016-10-10T00:17:27.899Z,99.99
2016-10-10T00:18:27.953Z,99.99
2016-10-10T00:19:27.925Z,99.99
2016-10-10T00:20:27.961Z,99.99
2016-10-10T00:21:27.923Z,99.99
2016-10-10T00:22:27.942Z,99.99
2016-10-10T00:23:27.921Z,99.99
2016-10-10T00:24:27.910Z,99.99
2016-10-10T00:25:27.917Z,99.99
2016-10-10T00:26:27.905Z,99.99
2016-10-10T00:27:27.901Z,99.99
2016-10-10T00:28:27.922Z,99.99
2016-10-10T00:29:27.917Z,99.99
2016-10-10T00:30:27.909Z,99.99
2016-10-10T00:31:27.910Z,99.99
2016-10-10T00:32:27.925Z,99.99
2016-10-10T00:33:27.926Z,99.99
2016-10-10T00:34:27.937Z,99.99
2016-10-10T00:35:27.915Z,99.99
2016-10-10T00:36:27.925Z,99.99
2016-10-10T00:37:27.928Z,99.99
2016-10-10T00:38:27.938Z,99.99
2016-10-10T00:39:27.940Z,99.99
2016-10-10T00:40:27.918Z,99.99
2016-10-10T00:41:27.940Z,99.99
2016-10-10T00:42:27.927Z,99.99
2016-10-10T00:43:27.936Z,99.99
2016-10-10T00:44:27.948Z,99.99
2016-10-10T00:45:27.948Z,99.99
2016-10-10T00:46:27.937Z,99.99
2016-10-10T00:47:27.946Z,99.99
2016-10-10T00:48:27.967Z,99.99
2016-10-10T00:49:27.943Z,99.99
2016-10-10T00:50:27.960Z,99.99
2016-10-10T00:51:31.113Z,99.99
2016-10-10T00:52:32.738Z,99.99
2016-10-10T00:53:32.695Z,99.99
2016-10-10T00:54:31.874Z,99.99
2016-10-10T00:55:32.309Z,99.99
2016-10-10T00:56:32.409Z,99.99
2016-10-10T00:57:33.340Z,99.99
2016-10-10T00:58:33.036Z,99.99
2016-10-10T00:59:33.654Z,99.99
2016-10-10T01:00:32.825Z,99.99
2016-10-10T01:01:33.083Z,99.99
2016-10-10T01:02:33.109Z,99.99
2016-10-10T01:03:33.056Z,99.99
2016-10-10T01:04:32.814Z,99.99
2016-10-10T01:05:32.258Z,99.99
2016-10-10T01:06:32.144Z,99.99
2016-10-10T01:07:32.730Z,99.99
2016-10-10T01:08:32.313Z,99.99
2016-10-10T01:09:32.310Z,99.99
2016-10-10T01:10:27.967Z,99.99
2016-10-10T01:11:32.891Z,99.99
2016-10-10T01:12:32.902Z,99.99
2016-10-10T01:13:33.179Z,99.99
2016-10-10T01:14:32.714Z,99.99
2016-10-10T01:15:27.972Z,99.99
2016-10-10T01:16:27.946Z,99.99
2016-10-10T01:17:27.984Z,99.99
2016-10-10T01:18:27.972Z,99.99
2016-10-10T01:19:27.968Z,99.99
2016-10-10T01:20:27.967Z,99.99
2016-10-10T01:21:27.958Z,99.99
2016-10-10T01:22:27.955Z,99.99
2016-10-10T01:23:28.639Z,99.99
2016-10-10T01:24:27.942Z,99.99
2016-10-10T01:25:27.964Z,99.99
2016-10-10T01:26:27.964Z,99.99
2016-10-10T01:27:27.964Z,99.99
2016-10-10T01:28:27.976Z,99.99
2016-10-10T01:29:27.967Z,99.99
2016-10-10T01:30:27.957Z,99.99
2016-10-10T01:31:27.973Z,99.99
2016-10-10T01:32:27.960Z,99.99
2016-10-10T01:33:27.977Z,99.99
2016-10-10T01:34:27.963Z,99.99
2016-10-10T01:35:27.957Z,99.99
2016-10-10T01:36:27.987Z,99.99
2016-10-10T01:37:28.627Z,99.99
2016-10-10T01:38:27.971Z,99.99
2016-10-10T01:39:27.962Z,99.99
2016-10-10T01:40:27.968Z,99.99
2016-10-10T01:41:27.971Z,99.99
2016-10-10T01:42:27.971Z,99.99
2016-10-10T01:43:27.990Z,99.99
2016-10-10T01:44:27.977Z,99.99
2016-10-10T01:45:27.958Z,99.99
2016-10-10T01:46:27.967Z,99.99
2016-10-10T01:47:27.992Z,99.99
2016-10-10T01:48:28.016Z,99.99
2016-10-10T01:49:27.983Z,99.99
2016-10-10T01:50:27.993Z,99.99
2016-10-10T01:51:27.977Z,99.99
2016-10-10T01:52:27.981Z,99.99
2016-10-10T01:53:27.973Z,99.99
2016-10-10T01:54:27.977Z,99.99
2016-10-10T01:55:27.987Z,99.99
2016-10-10T01:56:27.996Z,99.99
2016-10-10T01:57:27.986Z,99.99
2016-10-10T01:58:27.981Z,99.99
2016-10-10T01:59:28.008Z,99.99
2016-10-10T02:00:27.994Z,99.99
2016-10-10T02:01:28.018Z,99.99
2016-10-10T02:02:27.997Z,99.99
2016-10-10T02:03:27.993Z,99.99
2016-10-10T02:04:27.981Z,99.99
2016-10-10T02:05:27.999Z,99.99
2016-10-10T02:06:27.993Z,99.99
2016-10-10T02:07:28.003Z,99.99
2016-10-10T02:08:28.009Z,99.99
2016-10-10T02:09:27.990Z,99.99
2016-10-10T02:10:27.987Z,99.99
2016-10-10T02:11:28.006Z,99.99
2016-10-10T02:12:27.988Z,99.99
2016-10-10T02:13:28.005Z,99.99
2016-10-10T02:14:28.003Z,99.99
2016-10-10T02:15:27.980Z,99.99
2016-10-10T02:16:27.977Z,99.99
2016-10-10T02:17:27.990Z,99.99
2016-10-10T02:18:28.010Z,99.99
2016-10-10T02:19:28.003Z,99.99
2016-10-10T02:20:28.001Z,99.99
2016-10-10T02:21:28.004Z,99.99
2016-10-10T02:22:28.009Z,99.99
2016-10-10T02:23:28.015Z,99.99
2016-10-10T02:24:28.025Z,99.99
2016-10-10T02:25:27.998Z,99.99
2016-10-10T02:26:28.003Z,99.99
2016-10-10T02:27:28.011Z,99.99
2016-10-10T02:28:27.999Z,99.99
2016-10-10T02:29:28.004Z,99.99
2016-10-10T02:30:27.998Z,99.99
2016-10-10T02:31:28.010Z,99.99
2016-10-10T02:32:28.036Z,99.99
2016-10-10T02:33:28.017Z,99.99
2016-10-10T02:34:28.010Z,99.99
2016-10-10T02:35:28.014Z,99.99
2016-10-10T02:36:28.007Z,99.99
2016-10-10T02:37:28.030Z,99.99
2016-10-10T02:38:28.007Z,99.99
2016-10-10T02:39:28.038Z,99.99
2016-10-10T02:40:28.047Z,99.99
2016-10-10T02:41:28.017Z,99.99
2016-10-10T02:42:28.030Z,99.99
2016-10-10T02:43:28.023Z,99.99
2016-10-10T02:44:28.025Z,99.99
2016-10-10T02:45:28.028Z,99.99
2016-10-10T02:46:28.025Z,99.99
2016-10-10T02:47:28.003Z,99.99
2016-10-10T02:48:28.022Z,99.99
2016-10-10T02:49:28.017Z,99.99
2016-10-10T02:50:28.010Z,99.99
2016-10-10T02:51:28.029Z,99.99
2016-10-10T02:52:28.004Z,99.99
2016-10-10T02:53:28.020Z,99.99
2016-10-10T02:54:28.032Z,99.99
2016-10-10T02:55:27.994Z,99.99
2016-10-10T02:56:28.018Z,99.99
2016-10-10T02:57:28.008Z,99.99
2016-10-10T02:58:28.022Z,99.99
2016-10-10T02:59:28.023Z,99.99
2016-10-10T03:00:28.028Z,99.99
2016-10-10T03:01:28.034Z,99.99
2016-10-10T03:02:28.026Z,99.99
2016-10-10T03:03:28.019Z,99.99
2016-10-10T03:04:28.036Z,99.99
2016-10-10T03:05:28.025Z,99.99
2016-10-10T03:06:28.034Z,99.99
2016-10-10T03:07:28.009Z,99.99
2016-10-10T03:08:28.044Z,99.99
2016-10-10T03:09:28.050Z,99.99
2016-10-10T03:10:28.031Z,99.99
2016-10-10T03:11:28.038Z,99.99
2016-10-10T03:12:28.045Z,99.99
2016-10-10T03:13:28.038Z,99.99
2016-10-10T03:14:28.039Z,99.99
2016-10-10T03:15:28.047Z,99.99
2016-10-10T03:16:28.062Z,99.99
2016-10-10T03:17:28.048Z,99.99
2016-10-10T03:18:28.041Z,99.99
2016-10-10T03:19:28.063Z,99.99
2016-10-10T03:20:28.040Z,99.99
2016-10-10T03:21:28.044Z,99.99
2016-10-10T03:22:28.062Z,99.99
2016-10-10T03:23:28.041Z,99.99
2016-10-10T03:24:28.055Z,99.99
2016-10-10T03:25:28.031Z,99.99
2016-10-10T03:26:28.031Z,99.99
2016-10-10T03:27:28.022Z,99.99
2016-10-10T03:28:28.030Z,99.99
2016-10-10T03:29:28.051Z,99.99
2016-10-10T03:30:28.073Z,99.99
2016-10-10T03:31:28.049Z,99.99
2016-10-10T03:32:28.055Z,99.99
2016-10-10T03:33:28.103Z,99.99
2016-10-10T03:34:28.068Z,99.99
2016-10-10T03:35:28.066Z,99.99
2016-10-10T03:36:28.054Z,99.99
2016-10-10T03:37:28.060Z,99.99
2016-10-10T03:38:28.057Z,99.99
2016-10-10T03:39:28.060Z,99.99
2016-10-10T03:40:28.039Z,99.99
2016-10-10T03:41:28.062Z,99.99
2016-10-10T03:42:28.051Z,99.99
2016-10-10T03:43:28.049Z,99.99
2016-10-10T03:44:28.073Z,99.99
2016-10-10T03:45:28.047Z,99.99
2016-10-10T03:46:28.047Z,99.99
2016-10-10T03:47:28.068Z,99.99
2016-10-10T03:48:28.064Z,99.99
2016-10-10T03:49:28.079Z,99.99
2016-10-10T03:50:28.071Z,99.99
2016-10-10T03:51:28.057Z,99.99
2016-10-10T03:52:28.060Z,99.99
2016-10-10T03:53:28.071Z,99.99
2016-10-10T03:54:28.089Z,99.99
2016-10-10T03:55:28.064Z,99.99
2016-10-10T03:56:28.064Z,99.99
2016-10-10T03:57:28.074Z,99.99
2016-10-10T03:58:28.093Z,99.99
2016-10-10T03:59:28.076Z,99.99
2016-10-10T04:00:28.068Z,99.99
2016-10-10T04:01:28.074Z,99.99
2016-10-10T04:02:28.079Z,99.99
2016-10-10T04:03:28.075Z,99.99
2016-10-10T04:04:28.153Z,99.99
2016-10-10T04:05:28.080Z,99.99
2016-10-10T04:06:28.073Z,99.99
2016-10-10T04:07:28.070Z,99.99
2016-10-10T04:08:28.070Z,99.99
2016-10-10T04:09:28.108Z,99.99
2016-10-10T04:10:28.084Z,99.99
2016-10-10T04:11:28.076Z,99.99
2016-10-10T04:12:28.109Z,99.99
2016-10-10T04:13:28.089Z,99.99
2016-10-10T04:14:28.095Z,99.99
2016-10-10T04:15:28.075Z,99.99
2016-10-10T04:16:28.092Z,99.99
2016-10-10T04:17:28.081Z,99.99
2016-10-10T04:18:28.086Z,99.99
2016-10-10T04:19:28.083Z,99.99
2016-10-10T04:20:28.089Z,99.99
2016-10-10T04:21:28.112Z,99.99
2016-10-10T04:22:28.090Z,99.99
2016-10-10T04:23:28.107Z,99.99
2016-10-10T04:24:28.106Z,99.99
2016-10-10T04:25:28.083Z,99.99
2016-10-10T04:26:28.075Z,99.99
2016-10-10T04:27:28.104Z,99.99
2016-10-10T04:28:28.094Z,99.99
2016-10-10T04:29:28.147Z,99.99
2016-10-10T04:30:28.099Z,99.99
2016-10-10T04:31:28.115Z,99.99
2016-10-10T04:32:28.140Z,99.99
2016-10-10T04:33:28.073Z,99.99
2016-10-10T04:34:28.094Z,99.99
2016-10-10T04:35:28.086Z,99.99
2016-10-10T04:36:28.101Z,99.99
2016-10-10T04:37:28.102Z,99.99
2016-10-10T04:38:28.090Z,99.99
2016-10-10T04:39:28.112Z,99.99
2016-10-10T04:40:28.113Z,99.99
2016-10-10T04:41:28.112Z,99.99
2016-10-10T04:42:28.084Z,99.99
2016-10-10T04:43:28.122Z,99.99
2016-10-10T04:44:28.124Z,99.99
2016-10-10T04:45:28.108Z,99.99
2016-10-10T04:46:28.115Z,99.99
2016-10-10T04:47:28.096Z,99.99
2016-10-10T04:48:28.091Z,99.99
2016-10-10T04:49:28.144Z,99.99
2016-10-10T04:50:28.121Z,99.99
2016-10-10T04:51:28.125Z,99.99
2016-10-10T04:52:28.118Z,99.99
2016-10-10T04:53:28.099Z,99.99
2016-10-10T04:54:28.161Z,99.99
2016-10-10T04:55:28.112Z,99.99
2016-10-10T04:56:28.142Z,99.99
2016-10-10T04:57:28.132Z,99.99
2016-10-10T04:58:28.113Z,99.99
2016-10-10T04:59:28.128Z,99.99
2016-10-10T05:00:28.097Z,99.99
2016-10-10T05:01:28.174Z,99.99
2016-10-10T05:02:28.141Z,99.99
2016-10-10T05:03:28.133Z,99.99
2016-10-10T05:04:28.144Z,99.99
2016-10-10T05:05:28.129Z,99.99
2016-10-10T05:06:28.118Z,99.99
2016-10-10T05:07:28.131Z,99.99
2016-10-10T05:08:28.116Z,99.99
2016-10-10T05:09:28.134Z,99.99
2016-10-10T05:10:28.163Z,99.99
2016-10-10T05:11:28.140Z,99.99
2016-10-10T05:12:28.144Z,99.99
2016-10-10T05:13:28.131Z,99.99
2016-10-10T05:14:28.144Z,99.99
2016-10-10T05:15:28.134Z,99.99
2016-10-10T05:16:28.128Z,99.99
2016-10-10T05:17:28.167Z,99.99
2016-10-10T05:18:28.129Z,99.99
2016-10-10T05:19:28.160Z,99.99
2016-10-10T05:20:28.131Z,99.99
2016-10-10T05:21:28.129Z,99.99
2016-10-10T05:22:28.140Z,99.99
2016-10-10T05:23:28.131Z,99.99
2016-10-10T05:24:28.151Z,99.99
2016-10-10T05:25:28.163Z,99.99
2016-10-10T05:26:28.123Z,99.99
2016-10-10T05:27:28.129Z,99.99
2016-10-10T05:28:28.142Z,99.99
2016-10-10T05:29:28.145Z,99.99
2016-10-10T05:30:28.138Z,99.99
2016-10-10T05:31:28.144Z,99.99
2016-10-10T05:32:28.163Z,99.99
2016-10-10T05:33:28.134Z,99.99
2016-10-10T05:34:28.184Z,99.99
2016-10-10T05:35:28.132Z,99.99
2016-10-10T05:36:28.153Z,99.99
2016-10-10T05:37:28.131Z,99.99
2016-10-10T05:38:28.176Z,99.99
2016-10-10T05:39:28.179Z,99.99
2016-10-10T05:40:28.144Z,99.99
2016-10-10T05:41:28.127Z,99.99
2016-10-10T05:42:28.131Z,99.99
2016-10-10T05:43:28.131Z,99.99
2016-10-10T05:44:28.180Z,99.99
2016-10-10T05:45:28.140Z,99.99
2016-10-10T05:46:28.157Z,99.99
2016-10-10T05:47:28.140Z,99.99
2016-10-10T05:48:28.160Z,99.99
2016-10-10T05:49:28.147Z,99.99
2016-10-10T05:50:28.144Z,99.99
2016-10-10T05:51:28.150Z,99.99
2016-10-10T05:52:28.140Z,99.99
2016-10-10T05:53:28.153Z,99.99
2016-10-10T05:54:28.215Z,99.99
2016-10-10T05:55:28.147Z,99.99
2016-10-10T05:56:28.138Z,99.99
2016-10-10T05:57:28.155Z,99.99
2016-10-10T05:58:28.206Z,99.99
2016-10-10T05:59:28.189Z,99.99
2016-10-10T06:00:28.150Z,99.99
2016-10-10T06:01:28.151Z,99.99
2016-10-10T06:02:28.153Z,99.99
2016-10-10T06:03:28.153Z,99.99
2016-10-10T06:04:28.159Z,99.99
2016-10-10T06:05:28.150Z,99.99
2016-10-10T06:06:28.189Z,99.99
2016-10-10T06:07:28.172Z,99.99
2016-10-10T06:08:28.173Z,99.99
2016-10-10T06:09:28.166Z,99.99
2016-10-10T06:10:28.177Z,99.99
2016-10-10T06:11:28.186Z,99.99
2016-10-10T06:12:28.167Z,99.99
2016-10-10T06:13:28.186Z,99.99
2016-10-10T06:14:28.201Z,99.99
2016-10-10T06:15:28.156Z,99.99
2016-10-10T06:16:28.176Z,99.99
2016-10-10T06:17:28.156Z,99.99
2016-10-10T06:18:28.208Z,99.99
2016-10-10T06:19:28.204Z,99.99
2016-10-10T06:20:28.164Z,99.99
2016-10-10T06:21:28.700Z,99.99
2016-10-10T06:22:28.185Z,99.99
2016-10-10T06:23:29.571Z,99.99
2016-10-10T06:24:28.170Z,99.99
2016-10-10T06:25:28.197Z,99.99
2016-10-10T06:26:28.175Z,99.99
2016-10-10T06:27:28.168Z,99.99
2016-10-10T06:28:28.187Z,99.99
2016-10-10T06:29:28.272Z,99.99
2016-10-10T06:30:28.207Z,99.99
2016-10-10T06:31:28.190Z,99.99
2016-10-10T06:32:28.181Z,99.99
2016-10-10T06:33:28.185Z,99.99
2016-10-10T06:34:28.193Z,99.99
2016-10-10T06:35:28.183Z,99.99
2016-10-10T06:36:28.162Z,99.99
2016-10-10T06:37:28.191Z,99.99
2016-10-10T06:38:28.213Z,99.99
2016-10-10T06:39:28.207Z,99.99
2016-10-10T06:40:28.272Z,99.99
2016-10-10T06:41:28.206Z,99.99
2016-10-10T06:42:28.183Z,99.99
2016-10-10T06:43:28.276Z,99.99
2016-10-10T06:44:28.215Z,99.99
2016-10-10T06:45:28.346Z,99.99
2016-10-10T06:46:28.204Z,99.99
2016-10-10T06:47:28.191Z,99.99
2016-10-10T06:48:28.210Z,99.99
2016-10-10T06:49:28.221Z,99.99
2016-10-10T06:50:28.240Z,99.99
2016-10-10T06:51:28.221Z,99.99
2016-10-10T06:52:28.224Z,99.99
2016-10-10T06:53:28.325Z,99.99
2016-10-10T06:54:28.224Z,99.99
2016-10-10T06:55:28.272Z,99.99
2016-10-10T06:56:28.234Z,99.99
2016-10-10T06:57:28.204Z,99.99
2016-10-10T06:58:28.202Z,99.99
2016-10-10T06:59:28.597Z,99.99
2016-10-10T07:00:28.223Z,99.99
2016-10-10T07:01:28.495Z,99.99
2016-10-10T07:02:28.206Z,99.99
2016-10-10T07:03:28.201Z,99.99
2016-10-10T07:04:28.209Z,99.99
2016-10-10T07:05:28.357Z,99.99
2016-10-10T07:06:28.206Z,99.99
2016-10-10T07:07:28.233Z,99.99
2016-10-10T07:08:28.701Z,99.99
2016-10-10T07:09:28.244Z,99.99
2016-10-10T07:10:28.189Z,99.99
2016-10-10T07:11:28.219Z,99.99
2016-10-10T07:12:28.220Z,99.99
2016-10-10T07:13:28.221Z,99.99
2016-10-10T07:14:28.216Z,99.99
2016-10-10T07:15:28.188Z,99.99
2016-10-10T07:16:28.194Z,99.99
2016-10-10T07:17:28.229Z,99.99
2016-10-10T07:18:28.238Z,99.99
2016-10-10T07:19:28.279Z,99.99
2016-10-10T07:20:28.263Z,99.99
2016-10-10T07:21:28.214Z,99.99
2016-10-10T07:22:28.217Z,99.99
2016-10-10T07:23:28.237Z,99.99
2016-10-10T07:24:28.240Z,99.99
2016-10-10T07:25:28.227Z,99.99
2016-10-10T07:26:28.239Z,99.99
2016-10-10T07:27:28.227Z,99.99
2016-10-10T07:28:28.220Z,99.99
2016-10-10T07:29:28.252Z,99.99
2016-10-10T07:30:28.234Z,99.99
2016-10-10T07:31:28.265Z,99.99
2016-10-10T07:32:28.230Z,99.99
2016-10-10T07:33:28.263Z,99.99
2016-10-10T07:34:28.276Z,99.99
2016-10-10T07:35:28.245Z,99.99
2016-10-10T07:36:28.256Z,99.99
2016-10-10T07:37:28.232Z,99.99
2016-10-10T07:38:28.243Z,99.99
2016-10-10T07:39:28.252Z,99.99
2016-10-10T07:40:28.227Z,99.99
2016-10-10T07:41:28.240Z,99.99
2016-10-10T07:42:28.242Z,99.99
2016-10-10T07:43:28.213Z,99.99
2016-10-10T07:44:28.239Z,99.99
2016-10-10T07:45:28.223Z,99.99
2016-10-10T07:46:28.226Z,99.99
2016-10-10T07:47:28.216Z,99.99
2016-10-10T07:48:28.272Z,99.99
2016-10-10T07:49:28.266Z,99.99
2016-10-10T07:50:28.247Z,99.99
2016-10-10T07:51:28.306Z,99.99
2016-10-10T07:52:28.341Z,99.99
2016-10-10T07:53:28.271Z,99.99
2016-10-10T07:54:28.272Z,99.99
2016-10-10T07:55:28.248Z,99.99
2016-10-10T07:56:28.252Z,99.99
2016-10-10T07:57:28.370Z,99.99
2016-10-10T07:58:28.243Z,99.99
2016-10-10T07:59:28.269Z,99.99
2016-10-10T08:00:28.245Z,99.99
2016-10-10T08:01:28.282Z,99.99
2016-10-10T08:02:28.303Z,99.99
2016-10-10T08:03:28.250Z,99.99
2016-10-10T08:04:28.290Z,99.99
2016-10-10T08:05:28.246Z,99.99
2016-10-10T08:06:28.269Z,99.99
2016-10-10T08:07:28.281Z,99.99
2016-10-10T08:08:28.265Z,99.99
2016-10-10T08:09:28.283Z,99.99
2016-10-10T08:10:28.275Z,99.99
2016-10-10T08:11:28.254Z,99.99
2016-10-10T08:12:28.248Z,99.99
2016-10-10T08:13:28.256Z,99.99
2016-10-10T08:14:28.277Z,99.99
2016-10-10T08:15:28.286Z,99.99
2016-10-10T08:16:28.248Z,99.99
2016-10-10T08:17:28.313Z,99.99
2016-10-10T08:18:28.292Z,99.99
2016-10-10T08:19:28.277Z,99.99
2016-10-10T08:20:28.287Z,99.99
2016-10-10T08:21:28.267Z,99.99
2016-10-10T08:22:28.267Z,99.99
2016-10-10T08:23:28.862Z,99.99
2016-10-10T08:24:28.297Z,99.99
2016-10-10T08:25:28.280Z,99.99
2016-10-10T08:26:28.287Z,99.99
2016-10-10T08:27:28.278Z,99.99
2016-10-10T08:28:28.281Z,99.99
2016-10-10T08:29:28.316Z,99.99
2016-10-10T08:30:28.271Z,99.99
2016-10-10T08:31:28.293Z,99.99
2016-10-10T08:32:28.265Z,99.99
2016-10-10T08:33:28.291Z,99.99
2016-10-10T08:34:28.315Z,99.99
2016-10-10T08:35:28.299Z,99.99
2016-10-10T08:36:28.279Z,99.99
2016-10-10T08:37:28.297Z,99.99
2016-10-10T08:38:28.308Z,99.99
2016-10-10T08:39:28.296Z,99.99
2016-10-10T08:40:28.291Z,99.99
2016-10-10T08:41:28.308Z,99.99
2016-10-10T08:42:28.316Z,99.99
2016-10-10T08:43:28.280Z,99.99
2016-10-10T08:44:28.325Z,99.99
2016-10-10T08:45:28.278Z,99.99
2016-10-10T08:46:28.296Z,99.99
2016-10-10T08:47:28.296Z,99.99
2016-10-10T08:48:28.291Z,99.99
2016-10-10T08:49:28.355Z,99.99
2016-10-10T08:50:28.281Z,99.99
2016-10-10T08:51:28.293Z,99.99
2016-10-10T08:52:28.297Z,99.99
2016-10-10T08:53:28.293Z,99.99
2016-10-10T08:54:28.308Z,99.99
2016-10-10T08:55:28.350Z,99.99
2016-10-10T08:56:28.307Z,99.99
2016-10-10T08:57:28.305Z,99.99
2016-10-10T08:58:28.277Z,99.99
2016-10-10T08:59:28.315Z,99.99
2016-10-10T09:00:28.296Z,99.99
2016-10-10T09:01:28.286Z,99.99
2016-10-10T09:02:28.332Z,99.99
2016-10-10T09:03:28.325Z,99.99
2016-10-10T09:04:28.353Z,99.99
2016-10-10T09:05:28.294Z,99.99
2016-10-10T09:06:28.302Z,99.99
2016-10-10T09:07:28.354Z,99.99
2016-10-10T09:08:28.322Z,99.99
2016-10-10T09:09:28.342Z,99.99
2016-10-10T09:10:28.372Z,99.99
2016-10-10T09:11:28.336Z,99.99
2016-10-10T09:12:28.335Z,99.99
2016-10-10T09:13:28.342Z,99.99
2016-10-10T09:14:28.345Z,99.99
2016-10-10T09:15:28.335Z,99.99
2016-10-10T09:16:28.360Z,99.99
2016-10-10T09:17:28.360Z,99.99
2016-10-10T09:18:28.360Z,99.99
2016-10-10T09:19:28.352Z,99.99
2016-10-10T09:20:28.360Z,99.99
2016-10-10T09:21:28.306Z,99.99
2016-10-10T09:22:28.338Z,99.99
2016-10-10T09:23:28.326Z,99.99
2016-10-10T09:24:28.551Z,99.99
2016-10-10T09:25:28.329Z,99.99
2016-10-10T09:26:28.360Z,99.99
2016-10-10T09:27:28.387Z,99.99
2016-10-10T09:28:28.357Z,99.99
2016-10-10T09:29:28.357Z,99.99
2016-10-10T09:30:28.319Z,99.99
2016-10-10T09:31:28.327Z,99.99
2016-10-10T09:32:28.374Z,99.99
2016-10-10T09:33:28.681Z,99.99
2016-10-10T09:34:28.353Z,99.99
2016-10-10T09:35:28.358Z,99.99
2016-10-10T09:36:28.329Z,99.99
2016-10-10T09:37:28.356Z,99.99
2016-10-10T09:38:28.646Z,99.99
2016-10-10T09:39:28.384Z,99.99
2016-10-10T09:40:28.391Z,99.99
2016-10-10T09:41:28.358Z,99.99
2016-10-10T09:42:28.370Z,99.99
2016-10-10T09:43:28.387Z,99.99
2016-10-10T09:44:28.409Z,99.99
2016-10-10T09:45:28.395Z,99.99
2016-10-10T09:46:28.371Z,99.99
2016-10-10T09:47:28.335Z,99.99
2016-10-10T09:48:28.356Z,99.99
2016-10-10T09:49:28.409Z,99.99
2016-10-10T09:50:28.332Z,99.99
2016-10-10T09:51:28.362Z,99.99
2016-10-10T09:52:28.412Z,99.99
2016-10-10T09:53:28.393Z,99.99
2016-10-10T09:54:28.383Z,99.99
2016-10-10T09:55:28.358Z,99.99
2016-10-10T09:56:28.876Z,99.99
2016-10-10T09:57:43.402Z,99.99
2016-10-10T09:58:29.611Z,99.99
2016-10-10T09:59:28.400Z,99.99
2016-10-10T10:00:28.371Z,99.99
2016-10-10T10:01:28.683Z,99.99
2016-10-10T10:02:29.570Z,99.99
2016-10-10T10:03:29.516Z,99.99
2016-10-10T10:04:28.374Z,99.99
2016-10-10T10:05:28.372Z,99.99
2016-10-10T10:06:28.379Z,99.99
2016-10-10T10:07:28.359Z,99.99
2016-10-10T10:08:28.375Z,99.99
2016-10-10T10:09:28.385Z,99.99
2016-10-10T10:10:28.391Z,99.99
2016-10-10T10:11:28.408Z,99.8
2016-10-10T10:12:28.407Z,99.99
2016-10-10T10:13:28.379Z,99.99
2016-10-10T10:14:28.401Z,99.99
2016-10-10T10:15:28.420Z,99.99
2016-10-10T10:16:28.434Z,99.99
2016-10-10T10:17:28.399Z,99.99
2016-10-10T10:18:28.405Z,99.99
2016-10-10T10:19:28.409Z,99.99
2016-10-10T10:20:28.420Z,99.99
2016-10-10T10:21:28.392Z,99.99
2016-10-10T10:22:28.427Z,99.99
2016-10-10T10:23:28.426Z,99.99
2016-10-10T10:24:28.407Z,99.99
2016-10-10T10:25:28.359Z,99.99
2016-10-10T10:26:28.394Z,99.99
2016-10-10T10:27:28.400Z,99.99
2016-10-10T10:28:28.390Z,99.99
2016-10-10T10:29:29.806Z,99.99
2016-10-10T10:30:28.378Z,99.99
2016-10-10T10:31:29.069Z,99.99
2016-10-10T10:32:28.419Z,99.99
2016-10-10T10:33:28.369Z,99.99
2016-10-10T10:34:28.883Z,99.99
2016-10-10T10:35:28.390Z,99.99
2016-10-10T10:36:28.732Z,99.27
2016-10-10T10:37:28.432Z,99.27
2016-10-10T10:38:28.428Z,99.18
2016-10-10T10:39:28.486Z,99.99
2016-10-10T10:40:28.390Z,99.99
2016-10-10T10:41:28.421Z,99.99
2016-10-10T10:42:28.408Z,99.99
2016-10-10T10:43:28.394Z,98.9
2016-10-10T10:44:28.394Z,98.13
2016-10-10T10:45:28.419Z,98.9
2016-10-10T10:46:28.409Z,98.22
2016-10-10T10:47:28.429Z,98.9
2016-10-10T10:48:28.429Z,99.99
2016-10-10T10:49:28.436Z,99.99
2016-10-10T10:50:28.419Z,99.46
2016-10-10T10:51:28.450Z,99.18
2016-10-10T10:52:28.412Z,98.51
2016-10-10T10:53:28.419Z,98.8
2016-10-10T10:54:28.404Z,99.46
2016-10-10T10:55:28.405Z,98.8
2016-10-10T10:56:28.411Z,97.85
2016-10-10T10:57:28.830Z,94.51
2016-10-10T10:58:28.469Z,95.56
2016-10-10T10:59:28.448Z,95.84
2016-10-10T11:00:28.472Z,93.17
2016-10-10T11:01:28.411Z,94.32
2016-10-10T11:02:28.412Z,94.03
2016-10-10T11:03:28.402Z,93.93
2016-10-10T11:04:28.462Z,95.46
2016-10-10T11:05:28.430Z,94.98
2016-10-10T11:06:28.445Z,96.61
2016-10-10T11:07:28.440Z,96.8
2016-10-10T11:08:28.470Z,95.84
2016-10-10T11:09:28.460Z,95.56
2016-10-10T11:10:28.493Z,95.17
2016-10-10T11:11:28.841Z,94.7
2016-10-10T11:12:28.414Z,93.65
2016-10-10T11:13:28.420Z,92.83
2016-10-10T11:14:28.440Z,89.97
2016-10-10T11:15:28.443Z,90.12
2016-10-10T11:16:28.454Z,91.02
2016-10-10T11:17:28.417Z,90.64
2016-10-10T11:18:28.439Z,90.17
2016-10-10T11:19:28.434Z,89.88
2016-10-10T11:20:28.422Z,88.64
2016-10-10T11:21:28.440Z,88.83
2016-10-10T11:22:28.474Z,89.4
2016-10-10T11:23:28.433Z,88.73
2016-10-10T11:24:28.527Z,87.3
2016-10-10T11:25:28.539Z,86.06
2016-10-10T11:26:28.516Z,85.91
2016-10-10T11:27:28.433Z,84.39
2016-10-10T11:28:28.453Z,83.72
2016-10-10T11:29:28.478Z,84.48
2016-10-10T11:30:28.723Z,84.29
2016-10-10T11:31:29.202Z,82.57
2016-10-10T11:32:28.443Z,81.43
2016-10-10T11:33:28.444Z,81.24
2016-10-10T11:34:28.462Z,80.85
2016-10-10T11:35:28.431Z,80.47
2016-10-10T11:36:28.604Z,81.14
2016-10-10T11:37:28.443Z,80.7
2016-10-10T11:38:28.517Z,79.75
2016-10-10T11:39:28.495Z,79.27
2016-10-10T11:40:28.452Z,79.36
2016-10-10T11:41:28.446Z,78.99
2016-10-10T11:42:28.428Z,78.07
2016-10-10T11:43:28.416Z,77.26
2016-10-10T11:44:28.453Z,78.45
2016-10-10T11:45:28.430Z,77.3
2016-10-10T11:46:28.437Z,77.5
2016-10-10T11:47:28.431Z,76.92
2016-10-10T11:48:28.422Z,76.2
2016-10-10T11:49:28.457Z,75.14
2016-10-10T11:50:28.483Z,74.66
2016-10-10T11:51:28.616Z,74.38
2016-10-10T11:52:28.479Z,75.05
2016-10-10T11:53:28.505Z,75.05
2016-10-10T11:54:28.505Z,74.51
2016-10-10T11:55:28.467Z,74.19
2016-10-10T11:56:28.486Z,73.55
2016-10-10T11:57:28.477Z,71.36
2016-10-10T11:58:28.471Z,71.73
2016-10-10T11:59:28.524Z,72.12
2016-10-10T12:00:28.459Z,72.69
2016-10-10T12:01:28.457Z,72.6
2016-10-10T12:02:28.476Z,71.36
2016-10-10T12:03:28.470Z,71.55
2016-10-10T12:04:28.479Z,71.16
2016-10-10T12:05:28.466Z,70.62
2016-10-10T12:06:28.464Z,71.01
2016-10-10T12:07:28.503Z,70.53
2016-10-10T12:08:28.468Z,70.53
2016-10-10T12:09:28.487Z,67.56
2016-10-10T12:10:28.477Z,68.46
2016-10-10T12:11:28.483Z,69.42
2016-10-10T12:12:28.533Z,69.7
2016-10-10T12:13:28.642Z,69.32
2016-10-10T12:14:28.493Z,69.42
2016-10-10T12:15:28.481Z,67.54
2016-10-10T12:16:28.497Z,67.63
2016-10-10T12:17:28.502Z,65.81
2016-10-10T12:18:28.463Z,65.62
2016-10-10T12:19:28.521Z,64.95
2016-10-10T12:20:28.484Z,64.47
2016-10-10T12:21:28.475Z,63.8
2016-10-10T12:22:28.478Z,62.74
2016-10-10T12:23:28.493Z,63.51
2016-10-10T12:24:28.538Z,63.13
2016-10-10T12:25:28.475Z,63.89
2016-10-10T12:26:28.483Z,63.89
2016-10-10T12:27:28.520Z,63.13
2016-10-10T12:28:28.507Z,61.98
2016-10-10T12:29:28.533Z,62.26
2016-10-10T12:30:28.464Z,63.51
2016-10-10T12:31:28.485Z,63.6
2016-10-10T12:32:28.504Z,63.8
2016-10-10T12:33:28.523Z,65.49
2016-10-10T12:34:28.506Z,65.97
2016-10-10T12:35:28.539Z,64.92
2016-10-10T12:36:28.530Z,64.63
2016-10-10T12:37:28.520Z,61.85
2016-10-10T12:38:28.487Z,62.81
2016-10-10T12:39:28.521Z,64.31
2016-10-10T12:40:28.484Z,66.22
2016-10-10T12:41:28.492Z,67.66
2016-10-10T12:42:28.495Z,68.9
2016-10-10T12:43:28.519Z,71.36
2016-10-10T12:44:28.537Z,69.35
2016-10-10T12:45:28.543Z,70.21
2016-10-10T12:46:28.492Z,71.64
2016-10-10T12:47:28.536Z,72.08
2016-10-10T12:48:28.532Z,72.85
2016-10-10T12:49:28.540Z,73.04
2016-10-10T12:50:28.507Z,74.28
2016-10-10T12:51:28.497Z,75.05
2016-10-10T12:52:28.514Z,75.24
2016-10-10T12:53:28.521Z,75.39